createdAt,value
2022-07-26T00:01:28.064Z,25.88
2022-07-26T00:04:01.767Z,25.85
2022-07-26T00:06:30.290Z,25.84
2022-07-26T00:08:58.693Z,25.91
2022-07-26T00:11:29.171Z,25.98
2022-07-26T00:13:58.054Z,26.07
2022-07-26T00:16:26.760Z,26.15
2022-07-26T00:18:55.959Z,26.22
2022-07-26T00:21:25.087Z,26.30
2022-07-26T00:23:53.564Z,26.37
2022-07-26T00:26:22.995Z,26.47
2022-07-26T00:28:51.431Z,26.54
2022-07-26T00:31:20.463Z,26.59
2022-07-26T00:33:49.254Z,26.62
2022-07-26T00:36:17.857Z,26.65
2022-07-26T00:38:46.756Z,26.67
2022-07-26T00:41:15.891Z,26.69
2022-07-26T00:43:59.067Z,26.70
2022-07-26T00:46:28.822Z,26.71
2022-07-26T00:48:57.761Z,26.73
2022-07-26T00:51:26.398Z,26.75
2022-07-26T00:53:55.822Z,26.76
2022-07-26T00:56:24.573Z,26.78
2022-07-26T00:58:53.000Z,26.79
2022-07-26T01:01:22.413Z,26.80
2022-07-26T01:03:53.504Z,26.81
2022-07-26T01:06:27.381Z,26.81
2022-07-26T01:08:56.645Z,26.81
2022-07-26T01:11:25.162Z,26.81
2022-07-26T01:13:53.918Z,26.81
2022-07-26T01:16:22.566Z,26.80
2022-07-26T01:18:52.663Z,26.77
2022-07-26T01:21:22.844Z,26.75
2022-07-26T01:23:51.559Z,26.72
2022-07-26T01:26:20.517Z,26.68
2022-07-26T01:28:52.868Z,26.54
2022-07-26T01:31:21.862Z,26.40
2022-07-26T01:33:51.304Z,26.31
2022-07-26T01:36:20.360Z,26.28
2022-07-26T01:38:49.453Z,26.27
2022-07-26T01:41:18.093Z,26.23
2022-07-26T01:43:59.889Z,26.16
2022-07-26T01:46:28.834Z,26.08
2022-07-26T01:48:58.065Z,25.99
2022-07-26T01:51:27.035Z,25.93
2022-07-26T01:53:55.631Z,25.87
2022-07-26T01:56:24.320Z,25.83
2022-07-26T01:58:53.337Z,25.83
2022-07-26T02:01:38.672Z,25.81
2022-07-26T02:04:29.408Z,25.76
2022-07-26T02:06:58.023Z,25.69
2022-07-26T02:09:28.903Z,25.62
2022-07-26T02:12:03.141Z,25.55
2022-07-26T02:14:32.012Z,25.50
2022-07-26T02:17:00.475Z,25.41
2022-07-26T02:19:30.155Z,25.32
2022-07-26T02:21:59.805Z,25.21
2022-07-26T02:24:31.786Z,25.07
2022-07-26T02:27:02.248Z,25.00
2022-07-26T02:29:31.337Z,24.96
2022-07-26T02:32:00.704Z,24.90
2022-07-26T02:34:33.746Z,24.83
2022-07-26T02:37:03.130Z,24.75
2022-07-26T02:39:32.487Z,24.65
2022-07-26T02:42:02.734Z,24.58
2022-07-26T02:44:31.582Z,24.53
2022-07-26T02:47:00.759Z,24.42
2022-07-26T02:49:29.430Z,24.31
2022-07-26T02:51:58.544Z,24.24
2022-07-26T02:54:27.386Z,24.16
2022-07-26T02:56:55.860Z,24.11
2022-07-26T02:59:24.402Z,24.13
2022-07-26T03:01:54.239Z,24.10
2022-07-26T03:04:22.812Z,24.01
2022-07-26T03:06:51.777Z,23.92
2022-07-26T03:09:20.501Z,23.83
2022-07-26T03:11:49.283Z,23.72
2022-07-26T03:14:18.858Z,23.60
2022-07-26T03:16:47.558Z,23.59
2022-07-26T03:19:16.055Z,23.61
2022-07-26T03:21:45.450Z,23.56
2022-07-26T03:24:14.367Z,23.47
2022-07-26T03:26:42.876Z,23.33
2022-07-26T03:29:11.867Z,23.19
2022-07-26T03:31:40.713Z,23.09
2022-07-26T03:34:09.355Z,22.98
2022-07-26T03:36:38.473Z,22.94
2022-07-26T03:39:07.353Z,22.89
2022-07-26T03:41:36.016Z,22.87
2022-07-26T03:44:05.333Z,22.83
2022-07-26T03:46:34.690Z,22.74
2022-07-26T03:49:03.574Z,22.68
2022-07-26T03:51:34.597Z,22.69
2022-07-26T03:54:03.816Z,22.71
2022-07-26T03:56:32.493Z,22.72
2022-07-26T03:59:09.314Z,22.74
2022-07-26T04:01:43.009Z,22.80
2022-07-26T04:04:13.617Z,22.78
2022-07-26T04:06:42.651Z,22.77
2022-07-26T04:09:12.131Z,22.77
2022-07-26T04:11:41.283Z,22.78
2022-07-26T04:14:11.479Z,22.82
2022-07-26T04:16:43.605Z,22.82
2022-07-26T04:19:13.204Z,22.79
2022-07-26T04:21:41.768Z,22.75
2022-07-26T04:24:10.659Z,22.75
2022-07-26T04:26:41.040Z,22.77
2022-07-26T04:29:09.673Z,22.78
2022-07-26T04:31:41.364Z,22.86
2022-07-26T04:34:10.518Z,22.88
2022-07-26T04:36:39.650Z,22.87
2022-07-26T04:39:08.587Z,22.85
2022-07-26T04:41:37.520Z,22.85
2022-07-26T04:44:06.593Z,22.93
2022-07-26T04:46:36.208Z,22.98
2022-07-26T04:49:05.025Z,23.01
2022-07-26T04:51:33.612Z,23.02
2022-07-26T04:54:02.794Z,23.05
2022-07-26T04:56:31.689Z,23.04
2022-07-26T04:59:00.437Z,23.02
2022-07-26T05:01:29.366Z,23.03
2022-07-26T05:03:57.873Z,22.99
2022-07-26T05:06:26.797Z,22.96
2022-07-26T05:08:55.527Z,22.99
2022-07-26T05:11:24.337Z,22.99
2022-07-26T05:13:52.948Z,23.00
2022-07-26T05:16:22.146Z,23.00
2022-07-26T05:18:51.610Z,23.06
2022-07-26T05:21:20.181Z,23.10
2022-07-26T05:23:49.076Z,23.12
2022-07-26T05:26:17.668Z,23.11
2022-07-26T05:28:46.209Z,23.12
2022-07-26T05:31:15.369Z,23.13
2022-07-26T05:33:44.349Z,23.18
2022-07-26T05:36:12.887Z,23.29
2022-07-26T05:38:41.802Z,23.40
2022-07-26T05:41:10.632Z,23.48
2022-07-26T05:43:40.577Z,23.55
2022-07-26T05:46:12.291Z,23.59
2022-07-26T05:48:40.947Z,23.60
2022-07-26T05:51:12.944Z,23.65
2022-07-26T05:53:41.636Z,23.64
2022-07-26T05:56:10.034Z,23.58
2022-07-26T05:58:38.928Z,23.60
2022-07-26T06:01:07.646Z,23.59
2022-07-26T06:03:36.531Z,23.61
2022-07-26T06:06:05.486Z,23.57
2022-07-26T06:08:36.405Z,23.54
2022-07-26T06:11:05.192Z,23.53
2022-07-26T06:13:34.103Z,23.55
2022-07-26T06:16:02.845Z,23.64
2022-07-26T06:18:31.656Z,23.72
2022-07-26T06:21:02.171Z,23.73
2022-07-26T06:23:34.156Z,23.78
2022-07-26T06:26:05.195Z,23.82
2022-07-26T06:28:34.483Z,23.85
2022-07-26T06:31:03.066Z,23.91
2022-07-26T06:33:31.849Z,24.00
2022-07-26T06:36:01.148Z,24.08
2022-07-26T06:38:29.737Z,24.20
2022-07-26T06:40:58.539Z,24.47
2022-07-26T06:43:28.010Z,24.76
2022-07-26T06:45:56.616Z,24.96
2022-07-26T06:48:25.307Z,25.10
2022-07-26T06:50:54.417Z,25.23
2022-07-26T06:53:22.945Z,25.39
2022-07-26T06:55:51.436Z,25.38
2022-07-26T06:58:20.584Z,25.35
2022-07-26T07:00:49.120Z,25.27
2022-07-26T07:03:17.729Z,25.08
2022-07-26T07:05:50.173Z,24.90
2022-07-26T07:08:22.742Z,24.89
2022-07-26T07:10:53.507Z,24.91
2022-07-26T07:13:23.770Z,24.88
2022-07-26T07:15:52.370Z,24.84
2022-07-26T07:18:22.389Z,24.81
2022-07-26T07:20:51.553Z,24.80
2022-07-26T07:23:22.831Z,24.75
2022-07-26T07:25:51.688Z,24.58
2022-07-26T07:28:20.557Z,24.56
2022-07-26T07:30:52.884Z,24.67
2022-07-26T07:33:22.478Z,24.80
2022-07-26T07:35:52.684Z,24.88
2022-07-26T07:38:22.407Z,24.92
2022-07-26T07:40:51.845Z,24.89
2022-07-26T07:43:20.428Z,25.13
2022-07-26T07:45:49.362Z,25.46
2022-07-26T07:48:19.252Z,25.79
2022-07-26T07:50:47.735Z,26.02
2022-07-26T07:53:56.299Z,26.11
2022-07-26T07:56:40.284Z,26.33
2022-07-26T07:59:09.812Z,26.54
2022-07-26T08:01:40.752Z,26.67
2022-07-26T08:04:10.445Z,26.73
2022-07-26T08:06:41.239Z,26.76
2022-07-26T08:09:10.218Z,26.68
2022-07-26T08:11:42.196Z,26.44
2022-07-26T08:14:11.948Z,26.43
2022-07-26T08:16:41.998Z,26.50
2022-07-26T08:19:12.024Z,26.63
2022-07-26T08:21:40.868Z,26.75
2022-07-26T08:24:11.112Z,26.71
2022-07-26T08:26:39.606Z,26.58
2022-07-26T08:29:08.086Z,26.55
2022-07-26T08:31:37.246Z,26.45
2022-07-26T08:34:06.176Z,26.51
2022-07-26T08:36:34.729Z,26.64
2022-07-26T08:39:04.099Z,26.85
2022-07-26T08:41:32.804Z,26.85
2022-07-26T08:44:09.526Z,26.78
2022-07-26T08:46:41.607Z,26.81
2022-07-26T08:49:12.606Z,26.79
2022-07-26T08:51:44.702Z,26.81
2022-07-26T08:54:16.001Z,26.86
2022-07-26T08:56:53.592Z,26.93
2022-07-26T08:59:23.935Z,27.00
2022-07-26T09:01:56.380Z,27.16
2022-07-26T09:04:32.096Z,27.31
2022-07-26T09:07:17.584Z,27.41
2022-07-26T09:09:55.527Z,27.54
2022-07-26T09:12:26.076Z,27.71
2022-07-26T09:14:55.182Z,27.88
2022-07-26T09:17:37.199Z,27.93
2022-07-26T09:20:15.459Z,27.85
2022-07-26T09:23:19.595Z,27.85
2022-07-26T09:25:48.470Z,27.86
2022-07-26T09:28:29.996Z,27.82
2022-07-26T09:31:02.311Z,27.68
2022-07-26T09:33:51.855Z,27.59
2022-07-26T09:36:21.886Z,27.40
2022-07-26T09:39:03.333Z,27.39
2022-07-26T09:41:34.930Z,27.36
2022-07-26T09:44:27.247Z,27.29
2022-07-26T09:46:59.562Z,27.20
2022-07-26T09:49:40.586Z,27.32
2022-07-26T09:52:17.216Z,27.50
2022-07-26T09:54:48.891Z,27.68
2022-07-26T09:57:19.472Z,27.81
2022-07-26T09:59:48.356Z,27.90
2022-07-26T10:02:17.082Z,27.95
2022-07-26T10:04:46.494Z,27.93
2022-07-26T10:07:15.951Z,27.87
2022-07-26T10:10:04.070Z,27.75
2022-07-26T10:12:33.578Z,27.71
2022-07-26T10:15:02.361Z,27.89
2022-07-26T10:17:34.880Z,28.03
2022-07-26T10:20:10.806Z,28.04
2022-07-26T10:22:51.097Z,28.01
2022-07-26T10:25:20.078Z,28.07
2022-07-26T10:27:58.432Z,28.13
2022-07-26T10:30:34.225Z,28.15
2022-07-26T10:33:10.611Z,28.08
2022-07-26T10:35:45.233Z,28.09
2022-07-26T10:38:15.700Z,28.06
2022-07-26T10:41:04.346Z,28.01
2022-07-26T10:43:42.475Z,28.00
2022-07-26T10:46:20.488Z,28.01
2022-07-26T10:49:05.035Z,28.09
2022-07-26T10:51:36.931Z,28.25
2022-07-26T10:54:09.087Z,28.36
2022-07-26T10:56:38.950Z,28.43
2022-07-26T10:59:07.896Z,28.49
2022-07-26T11:01:40.896Z,28.53
2022-07-26T11:04:23.405Z,28.56
2022-07-26T11:06:52.810Z,28.56
2022-07-26T11:09:23.841Z,28.43
2022-07-26T11:11:52.774Z,28.18
2022-07-26T11:14:21.555Z,28.09
2022-07-26T11:16:52.048Z,28.14
2022-07-26T11:19:25.310Z,28.24
2022-07-26T11:21:57.485Z,28.40
2022-07-26T11:24:27.565Z,28.52
2022-07-26T11:26:57.403Z,28.55
2022-07-26T11:29:39.166Z,28.54
2022-07-26T11:32:24.760Z,28.47
2022-07-26T11:35:04.487Z,28.41
2022-07-26T11:37:33.555Z,28.35
2022-07-26T11:40:03.530Z,28.30
2022-07-26T11:42:33.959Z,28.30
2022-07-26T11:45:03.175Z,28.17
2022-07-26T11:47:31.917Z,28.17
2022-07-26T11:50:14.298Z,28.25
2022-07-26T11:52:47.640Z,28.35
2022-07-26T11:55:33.983Z,28.36
2022-07-26T11:58:07.228Z,28.43
2022-07-26T12:00:36.466Z,28.50
2022-07-26T12:03:05.443Z,28.50
2022-07-26T12:05:34.223Z,28.50
2022-07-26T12:08:05.541Z,28.61
2022-07-26T12:10:34.743Z,28.62
2022-07-26T12:13:16.606Z,28.54
2022-07-26T12:15:49.809Z,28.38
2022-07-26T12:18:30.494Z,28.30
2022-07-26T12:21:07.117Z,28.29
2022-07-26T12:23:49.204Z,28.30
2022-07-26T12:26:31.124Z,28.49
2022-07-26T12:29:19.958Z,28.75
2022-07-26T12:32:02.890Z,28.82
2022-07-26T12:34:31.965Z,28.88
2022-07-26T12:37:17.976Z,28.97
2022-07-26T12:40:04.992Z,28.85
2022-07-26T12:42:41.019Z,28.68
2022-07-26T12:45:12.737Z,28.57
2022-07-26T12:47:44.430Z,28.49
2022-07-26T12:50:14.392Z,28.38
2022-07-26T12:52:43.855Z,28.45
2022-07-26T12:55:17.003Z,28.53
2022-07-26T12:57:47.574Z,28.55
2022-07-26T13:00:19.115Z,28.61
2022-07-26T13:02:48.960Z,28.71
2022-07-26T13:05:17.889Z,28.69
2022-07-26T13:07:46.790Z,28.45
2022-07-26T13:10:34.052Z,28.23
2022-07-26T13:13:04.398Z,27.97
2022-07-26T13:15:35.129Z,27.78
2022-07-26T13:18:08.954Z,27.63
2022-07-26T13:20:39.269Z,27.40
2022-07-26T13:23:15.862Z,27.31
2022-07-26T13:25:51.036Z,27.18
2022-07-26T13:28:20.309Z,27.10
2022-07-26T13:30:48.813Z,26.96
2022-07-26T13:33:17.950Z,26.91
2022-07-26T13:35:46.475Z,26.84
2022-07-26T13:38:20.568Z,26.83
2022-07-26T13:40:50.901Z,26.83
2022-07-26T13:43:19.676Z,26.85
2022-07-26T13:45:48.196Z,26.82
2022-07-26T13:48:16.929Z,26.76
2022-07-26T13:50:45.740Z,26.63
2022-07-26T13:53:14.307Z,26.57
2022-07-26T13:55:43.064Z,26.59
2022-07-26T13:58:11.846Z,26.68
2022-07-26T14:00:41.142Z,26.84
2022-07-26T14:03:10.192Z,26.99
2022-07-26T14:05:39.259Z,27.11
2022-07-26T14:08:08.025Z,27.21
2022-07-26T14:10:40.541Z,27.16
2022-07-26T14:13:10.009Z,27.18
2022-07-26T14:15:38.964Z,27.28
2022-07-26T14:18:08.246Z,27.32
2022-07-26T14:20:37.480Z,27.41
2022-07-26T14:23:07.090Z,27.56
2022-07-26T14:25:35.632Z,27.65
2022-07-26T14:28:04.751Z,27.51
2022-07-26T14:30:33.314Z,27.35
2022-07-26T14:33:02.020Z,27.29
2022-07-26T14:35:30.699Z,27.20
2022-07-26T14:37:59.404Z,27.10
2022-07-26T14:40:28.053Z,26.93
2022-07-26T14:43:00.244Z,26.78
2022-07-26T14:45:29.608Z,26.65
2022-07-26T14:47:58.580Z,26.59
2022-07-26T14:50:27.366Z,26.70
2022-07-26T14:52:56.871Z,26.88
2022-07-26T14:55:25.862Z,26.87
2022-07-26T14:57:54.639Z,26.83
2022-07-26T15:00:23.240Z,26.82
2022-07-26T15:02:52.066Z,26.83
2022-07-26T15:05:21.117Z,26.86
2022-07-26T15:07:50.035Z,26.88
2022-07-26T15:10:18.651Z,26.88
2022-07-26T15:12:47.461Z,26.88
2022-07-26T15:15:16.120Z,26.91
2022-07-26T15:17:44.740Z,26.90
2022-07-26T15:20:13.421Z,26.93
2022-07-26T15:22:42.303Z,26.91
2022-07-26T15:25:11.383Z,26.86
2022-07-26T15:27:40.228Z,26.76
2022-07-26T15:30:13.689Z,26.73
2022-07-26T15:32:44.475Z,26.78
2022-07-26T15:35:14.959Z,26.80
2022-07-26T15:37:44.270Z,26.83
2022-07-26T15:40:13.239Z,26.91
2022-07-26T15:42:44.157Z,27.00
2022-07-26T15:45:13.750Z,27.12
2022-07-26T15:47:54.948Z,27.23
2022-07-26T15:50:40.355Z,27.31
2022-07-26T15:53:15.583Z,27.37
2022-07-26T15:55:44.241Z,27.39
2022-07-26T15:58:13.599Z,27.46
2022-07-26T16:00:43.079Z,27.37
2022-07-26T16:03:12.203Z,27.31
2022-07-26T16:05:40.993Z,27.28
2022-07-26T16:08:10.017Z,27.13
2022-07-26T16:10:39.032Z,26.96
2022-07-26T16:13:07.658Z,26.87
2022-07-26T16:15:36.984Z,26.84
2022-07-26T16:18:06.544Z,26.81
2022-07-26T16:20:36.513Z,26.79
2022-07-26T16:23:05.186Z,26.73
2022-07-26T16:25:34.175Z,26.61
2022-07-26T16:28:02.721Z,26.56
2022-07-26T16:30:31.712Z,26.54
2022-07-26T16:33:00.645Z,26.53
2022-07-26T16:35:29.762Z,26.50
2022-07-26T16:37:58.405Z,26.51
2022-07-26T16:40:27.249Z,26.51
2022-07-26T16:42:56.066Z,26.56
2022-07-26T16:45:25.085Z,26.64
2022-07-26T16:47:58.106Z,26.74
2022-07-26T16:50:29.076Z,26.84
2022-07-26T16:52:57.895Z,26.86
2022-07-26T16:55:26.456Z,26.87
2022-07-26T16:57:55.610Z,26.92
2022-07-26T17:00:24.420Z,26.94
2022-07-26T17:03:11.704Z,26.90
2022-07-26T17:06:14.343Z,26.85
2022-07-26T17:08:58.481Z,26.77
2022-07-26T17:11:52.987Z,26.76
2022-07-26T17:14:37.631Z,26.71
2022-07-26T17:17:33.746Z,26.61
2022-07-26T17:20:29.922Z,26.52
2022-07-26T17:23:20.875Z,26.46
2022-07-26T17:26:10.757Z,26.43
2022-07-26T17:29:10.389Z,26.35
2022-07-26T17:31:57.020Z,26.24
2022-07-26T17:34:47.632Z,26.12
2022-07-26T17:37:53.226Z,26.01
2022-07-26T17:40:44.390Z,25.91
2022-07-26T17:43:13.336Z,25.87
2022-07-26T17:45:42.067Z,25.88
2022-07-26T17:48:11.130Z,25.84
2022-07-26T17:50:40.022Z,25.82
2022-07-26T17:53:08.616Z,25.76
2022-07-26T17:55:37.948Z,25.73
2022-07-26T17:58:06.705Z,25.76
2022-07-26T18:00:35.429Z,25.72
2022-07-26T18:03:04.565Z,25.66
2022-07-26T18:05:37.138Z,25.58
2022-07-26T18:08:10.247Z,25.52
2022-07-26T18:10:39.255Z,25.43
2022-07-26T18:13:07.874Z,25.31
2022-07-26T18:15:36.691Z,25.22
2022-07-26T18:18:08.139Z,25.17
2022-07-26T18:20:37.382Z,25.10
2022-07-26T18:23:06.448Z,25.07
2022-07-26T18:25:35.545Z,25.00
2022-07-26T18:28:07.214Z,24.91
2022-07-26T18:30:36.760Z,24.84
2022-07-26T18:33:06.034Z,24.80
2022-07-26T18:35:34.689Z,24.79
2022-07-26T18:38:03.624Z,24.74
2022-07-26T18:40:32.706Z,24.68
2022-07-26T18:43:01.416Z,24.62
2022-07-26T18:45:30.485Z,24.56
2022-07-26T18:47:59.877Z,24.50
2022-07-26T18:50:31.109Z,24.37
2022-07-26T18:53:02.214Z,24.20
2022-07-26T18:55:30.733Z,24.07
2022-07-26T18:58:04.671Z,23.96
2022-07-26T19:00:35.913Z,23.83
2022-07-26T19:03:05.117Z,23.74
2022-07-26T19:05:35.242Z,23.63
2022-07-26T19:08:05.892Z,23.55
2022-07-26T19:10:35.127Z,23.44
2022-07-26T19:13:03.936Z,23.40
2022-07-26T19:15:32.895Z,23.33
2022-07-26T19:18:10.092Z,23.27
2022-07-26T19:20:38.789Z,23.18
2022-07-26T19:23:07.315Z,23.13
2022-07-26T19:25:39.032Z,23.12
2022-07-26T19:28:09.231Z,23.10
2022-07-26T19:30:37.957Z,23.06
2022-07-26T19:33:06.536Z,23.00
2022-07-26T19:35:36.083Z,22.96
2022-07-26T19:38:04.920Z,22.91
2022-07-26T19:40:33.614Z,22.86
2022-07-26T19:43:02.954Z,22.83
2022-07-26T19:45:31.898Z,22.87
2022-07-26T19:48:00.353Z,22.90
2022-07-26T19:50:29.493Z,22.92
2022-07-26T19:52:58.379Z,22.90
2022-07-26T19:55:27.191Z,22.89
2022-07-26T19:57:56.079Z,22.87
2022-07-26T20:00:24.782Z,22.88
2022-07-26T20:02:53.306Z,22.93
2022-07-26T20:05:22.497Z,22.94
2022-07-26T20:07:51.639Z,22.92
2022-07-26T20:10:20.188Z,22.87
2022-07-26T20:12:49.250Z,22.80
2022-07-26T20:15:18.243Z,22.75
2022-07-26T20:17:47.016Z,22.72
2022-07-26T20:20:18.744Z,22.72
2022-07-26T20:22:47.345Z,22.66
2022-07-26T20:25:21.434Z,22.60
2022-07-26T20:27:51.806Z,22.62
2022-07-26T20:30:21.426Z,22.63
2022-07-26T20:32:50.319Z,22.70
2022-07-26T20:35:19.517Z,22.73
2022-07-26T20:37:48.203Z,22.69
2022-07-26T20:40:17.831Z,22.65
2022-07-26T20:42:47.711Z,22.66
2022-07-26T20:45:19.326Z,22.71
2022-07-26T20:47:48.281Z,22.75
2022-07-26T20:50:17.382Z,22.78
2022-07-26T20:52:46.164Z,22.78
2022-07-26T20:55:18.712Z,22.69
2022-07-26T20:57:48.238Z,22.65
2022-07-26T21:00:18.136Z,22.59
2022-07-26T21:02:47.030Z,22.55
2022-07-26T21:05:16.151Z,22.56
2022-07-26T21:07:55.735Z,22.54
2022-07-26T21:10:29.987Z,22.48
2022-07-26T21:13:00.725Z,22.42
2022-07-26T21:15:30.968Z,22.38
2022-07-26T21:17:59.854Z,22.26
2022-07-26T21:20:28.908Z,22.21
2022-07-26T21:23:12.911Z,22.20
2022-07-26T21:25:45.799Z,22.15
2022-07-26T21:28:14.906Z,22.01
2022-07-26T21:30:43.483Z,21.93
2022-07-26T21:33:13.023Z,21.86
2022-07-26T21:35:42.671Z,21.83
2022-07-26T21:38:11.404Z,21.89
2022-07-26T21:40:40.257Z,21.93
2022-07-26T21:43:09.355Z,21.96
2022-07-26T21:45:38.115Z,21.95
2022-07-26T21:48:07.142Z,21.88
2022-07-26T21:50:36.352Z,21.86
2022-07-26T21:53:05.002Z,21.88
2022-07-26T21:55:33.864Z,21.79
2022-07-26T21:58:02.803Z,21.69
2022-07-26T22:00:31.420Z,21.64
2022-07-26T22:03:00.166Z,21.57
2022-07-26T22:05:35.740Z,21.56
2022-07-26T22:08:10.329Z,21.53
2022-07-26T22:10:44.476Z,21.48
2022-07-26T22:13:15.323Z,21.42
2022-07-26T22:15:44.274Z,21.42
2022-07-26T22:18:14.270Z,21.35
2022-07-26T22:20:44.989Z,21.25
2022-07-26T22:23:13.950Z,21.14
2022-07-26T22:25:42.768Z,21.08
2022-07-26T22:28:18.451Z,21.06
2022-07-26T22:30:47.764Z,21.03
2022-07-26T22:33:17.750Z,20.94
2022-07-26T22:35:46.481Z,20.92
2022-07-26T22:38:15.389Z,20.95
2022-07-26T22:40:45.078Z,21.01
2022-07-26T22:43:14.945Z,21.04
2022-07-26T22:45:44.266Z,21.07
2022-07-26T22:48:13.655Z,21.06
2022-07-26T22:50:42.192Z,21.07
2022-07-26T22:53:11.096Z,21.07
2022-07-26T22:55:40.787Z,21.10
2022-07-26T22:58:09.502Z,21.15
2022-07-26T23:00:38.393Z,21.16
2022-07-26T23:03:19.432Z,21.18
2022-07-26T23:05:50.675Z,21.20
2022-07-26T23:08:47.066Z,21.20
2022-07-26T23:11:10.575Z,21.18
2022-07-26T23:13:39.900Z,21.11
2022-07-26T23:16:08.689Z,21.06
2022-07-26T23:18:38.340Z,21.01
2022-07-26T23:21:07.420Z,20.94
2022-07-26T23:23:36.186Z,20.91
2022-07-26T23:26:05.255Z,20.89
2022-07-26T23:28:35.769Z,20.86
2022-07-26T23:31:08.769Z,20.80
2022-07-26T23:33:51.652Z,20.76
2022-07-26T23:36:25.667Z,20.72
2022-07-26T23:38:56.347Z,20.68
2022-07-26T23:41:25.962Z,20.62
2022-07-26T23:43:55.459Z,20.55
2022-07-26T23:46:25.689Z,20.45
2022-07-26T23:48:54.766Z,20.39
2022-07-26T23:51:23.452Z,20.35
2022-07-26T23:53:53.634Z,20.32
2022-07-26T23:56:22.772Z,20.27
2022-07-26T23:58:51.882Z,20.26
